sensor_id;sensor_type;location;lat;lon;timestamp;temperature;humidity
68177;DHT22;56478;50.982;7.032;2024-02-04T00:01:03;10.87;90.09
68177;DHT22;56478;50.982;7.032;2024-02-04T00:03:29;10.85;90.29
68177;DHT22;56478;50.982;7.032;2024-02-04T00:05:54;10.88;90.19
68177;DHT22;56478;50.982;7.032;2024-02-04T00:08:21;10.87;90.45
68177;DHT22;56478;50.982;7.032;2024-02-04T00:10:47;10.78;90.72
68177;DHT22;56478;50.982;7.032;2024-02-04T00:13:12;10.74;91.33
68177;DHT22;56478;50.982;7.032;2024-02-04T00:15:38;10.76;91.54
68177;DHT22;56478;50.982;7.032;2024-02-04T00:18:04;10.76;91.77
68177;DHT22;56478;50.982;7.032;2024-02-04T00:20:30;10.73;91.87
68177;DHT22;56478;50.982;7.032;2024-02-04T00:22:58;10.68;92.22
68177;DHT22;56478;50.982;7.032;2024-02-04T00:25:24;10.70;92.47
68177;DHT22;56478;50.982;7.032;2024-02-04T00:27:49;10.66;92.66
68177;DHT22;56478;50.982;7.032;2024-02-04T00:30:18;10.71;92.70
68177;DHT22;56478;50.982;7.032;2024-02-04T00:32:43;10.67;92.79
68177;DHT22;56478;50.982;7.032;2024-02-04T00:35:09;10.67;92.86
68177;DHT22;56478;50.982;7.032;2024-02-04T00:37:34;10.66;93.03
68177;DHT22;56478;50.982;7.032;2024-02-04T00:40:00;10.66;93.05
68177;DHT22;56478;50.982;7.032;2024-02-04T00:42:26;10.71;93.08
68177;DHT22;56478;50.982;7.032;2024-02-04T00:44:51;10.70;93.08
68177;DHT22;56478;50.982;7.032;2024-02-04T00:47:17;10.73;93.04
68177;DHT22;56478;50.982;7.032;2024-02-04T00:49:43;10.73;93.10
68177;DHT22;56478;50.982;7.032;2024-02-04T00:52:08;10.77;92.77
68177;DHT22;56478;50.982;7.032;2024-02-04T00:54:34;10.68;93.10
68177;DHT22;56478;50.982;7.032;2024-02-04T00:56:59;10.61;92.99
68177;DHT22;56478;50.982;7.032;2024-02-04T00:59:25;10.66;93.17
68177;DHT22;56478;50.982;7.032;2024-02-04T01:01:51;10.64;93.15
68177;DHT22;56478;50.982;7.032;2024-02-04T01:04:16;10.61;93.11
68177;DHT22;56478;50.982;7.032;2024-02-04T01:06:42;10.60;93.37
68177;DHT22;56478;50.982;7.032;2024-02-04T01:09:08;10.61;93.29
68177;DHT22;56478;50.982;7.032;2024-02-04T01:11:34;10.61;93.25
68177;DHT22;56478;50.982;7.032;2024-02-04T01:13:59;10.64;93.24
68177;DHT22;56478;50.982;7.032;2024-02-04T01:16:26;10.59;92.99
68177;DHT22;56478;50.982;7.032;2024-02-04T01:18:52;10.61;93.12
68177;DHT22;56478;50.982;7.032;2024-02-04T01:21:18;10.67;93.13
68177;DHT22;56478;50.982;7.032;2024-02-04T01:23:43;10.61;93.20
68177;DHT22;56478;50.982;7.032;2024-02-04T01:26:09;10.59;93.36
68177;DHT22;56478;50.982;7.032;2024-02-04T01:28:35;10.59;93.41
68177;DHT22;56478;50.982;7.032;2024-02-04T01:31:00;10.59;93.43
68177;DHT22;56478;50.982;7.032;2024-02-04T01:33:26;10.64;93.24
68177;DHT22;56478;50.982;7.032;2024-02-04T01:35:52;10.63;93.22
68177;DHT22;56478;50.982;7.032;2024-02-04T01:38:18;10.68;93.27
68177;DHT22;56478;50.982;7.032;2024-02-04T01:40:43;10.64;93.26
68177;DHT22;56478;50.982;7.032;2024-02-04T01:43:11;10.63;93.33
68177;DHT22;56478;50.982;7.032;2024-02-04T01:45:37;10.61;93.41
68177;DHT22;56478;50.982;7.032;2024-02-04T01:48:03;10.57;93.49
68177;DHT22;56478;50.982;7.032;2024-02-04T01:50:29;10.63;93.29
68177;DHT22;56478;50.982;7.032;2024-02-04T01:52:55;10.63;93.16
68177;DHT22;56478;50.982;7.032;2024-02-04T01:55:21;10.60;93.23
68177;DHT22;56478;50.982;7.032;2024-02-04T01:57:47;10.61;93.36
68177;DHT22;56478;50.982;7.032;2024-02-04T02:00:15;10.60;93.54
68177;DHT22;56478;50.982;7.032;2024-02-04T02:02:41;10.61;93.47
68177;DHT22;56478;50.982;7.032;2024-02-04T02:05:07;10.64;93.29
68177;DHT22;56478;50.982;7.032;2024-02-04T02:07:34;10.68;93.47
68177;DHT22;56478;50.982;7.032;2024-02-04T02:09:59;10.70;93.56
68177;DHT22;56478;50.982;7.032;2024-02-04T02:12:27;10.64;93.58
68177;DHT22;56478;50.982;7.032;2024-02-04T02:15:05;10.63;93.67
68177;DHT22;56478;50.982;7.032;2024-02-04T02:18:00;10.61;93.47
68177;DHT22;56478;50.982;7.032;2024-02-04T02:23:14;10.66;93.43
68177;DHT22;56478;50.982;7.032;2024-02-04T02:25:40;10.64;93.56
68177;DHT22;56478;50.982;7.032;2024-02-04T02:28:06;10.70;93.40
68177;DHT22;56478;50.982;7.032;2024-02-04T02:30:32;10.74;93.24
68177;DHT22;56478;50.982;7.032;2024-02-04T02:32:58;10.70;93.47
68177;DHT22;56478;50.982;7.032;2024-02-04T02:35:25;10.70;93.41
68177;DHT22;56478;50.982;7.032;2024-02-04T02:37:59;10.73;93.47
68177;DHT22;56478;50.982;7.032;2024-02-04T02:40:28;10.68;93.55
68177;DHT22;56478;50.982;7.032;2024-02-04T02:42:55;10.70;93.48
68177;DHT22;56478;50.982;7.032;2024-02-04T02:45:23;10.70;93.30
68177;DHT22;56478;50.982;7.032;2024-02-04T02:47:51;10.71;93.46
68177;DHT22;56478;50.982;7.032;2024-02-04T02:50:17;10.66;93.55
68177;DHT22;56478;50.982;7.032;2024-02-04T02:52:43;10.68;93.64
68177;DHT22;56478;50.982;7.032;2024-02-04T02:55:09;10.63;93.56
68177;DHT22;56478;50.982;7.032;2024-02-04T02:57:34;10.66;93.60
68177;DHT22;56478;50.982;7.032;2024-02-04T03:00:00;10.67;93.52
68177;DHT22;56478;50.982;7.032;2024-02-04T03:02:26;10.67;93.53
68177;DHT22;56478;50.982;7.032;2024-02-04T03:04:51;10.71;93.53
68177;DHT22;56478;50.982;7.032;2024-02-04T03:07:17;10.77;93.26
68177;DHT22;56478;50.982;7.032;2024-02-04T03:09:43;10.74;93.35
68177;DHT22;56478;50.982;7.032;2024-02-04T03:12:09;10.74;93.48
68177;DHT22;56478;50.982;7.032;2024-02-04T03:14:35;10.76;93.53
68177;DHT22;56478;50.982;7.032;2024-02-04T03:17:00;10.74;93.40
68177;DHT22;56478;50.982;7.032;2024-02-04T03:19:26;10.76;93.44
68177;DHT22;56478;50.982;7.032;2024-02-04T03:21:52;10.81;93.27
68177;DHT22;56478;50.982;7.032;2024-02-04T03:24:17;10.74;93.56
68177;DHT22;56478;50.982;7.032;2024-02-04T03:26:43;10.76;93.68
68177;DHT22;56478;50.982;7.032;2024-02-04T03:29:09;10.77;93.56
68177;DHT22;56478;50.982;7.032;2024-02-04T03:31:34;10.71;93.64
68177;DHT22;56478;50.982;7.032;2024-02-04T03:34:00;10.71;93.73
68177;DHT22;56478;50.982;7.032;2024-02-04T03:36:26;10.76;93.43
68177;DHT22;56478;50.982;7.032;2024-02-04T03:38:52;10.74;93.34
68177;DHT22;56478;50.982;7.032;2024-02-04T03:41:18;10.83;93.26
68177;DHT22;56478;50.982;7.032;2024-02-04T03:43:44;10.83;93.14
68177;DHT22;56478;50.982;7.032;2024-02-04T03:46:16;10.83;93.15
68177;DHT22;56478;50.982;7.032;2024-02-04T03:48:43;10.83;93.13
68177;DHT22;56478;50.982;7.032;2024-02-04T03:51:08;10.85;93.19
68177;DHT22;56478;50.982;7.032;2024-02-04T03:53:39;10.84;92.94
68177;DHT22;56478;50.982;7.032;2024-02-04T03:56:05;10.88;92.70
68177;DHT22;56478;50.982;7.032;2024-02-04T03:58:32;10.87;92.79
68177;DHT22;56478;50.982;7.032;2024-02-04T04:00:58;10.88;92.90
68177;DHT22;56478;50.982;7.032;2024-02-04T04:03:26;10.94;92.65
68177;DHT22;56478;50.982;7.032;2024-02-04T04:05:53;10.92;92.54
68177;DHT22;56478;50.982;7.032;2024-02-04T04:08:18;10.95;92.36
68177;DHT22;56478;50.982;7.032;2024-02-04T04:10:45;10.92;92.50
68177;DHT22;56478;50.982;7.032;2024-02-04T04:13:11;10.97;92.33
68177;DHT22;56478;50.982;7.032;2024-02-04T04:15:37;10.97;92.05
68177;DHT22;56478;50.982;7.032;2024-02-04T04:18:03;10.97;92.10
68177;DHT22;56478;50.982;7.032;2024-02-04T04:20:29;11.02;91.93
68177;DHT22;56478;50.982;7.032;2024-02-04T04:22:54;10.98;92.04
68177;DHT22;56478;50.982;7.032;2024-02-04T04:25:20;10.94;92.12
68177;DHT22;56478;50.982;7.032;2024-02-04T04:27:46;10.94;92.07
68177;DHT22;56478;50.982;7.032;2024-02-04T04:30:11;10.95;92.18
68177;DHT22;56478;50.982;7.032;2024-02-04T04:32:37;10.92;91.98
68177;DHT22;56478;50.982;7.032;2024-02-04T04:35:03;11.00;91.89
68177;DHT22;56478;50.982;7.032;2024-02-04T04:37:29;11.01;91.97
68177;DHT22;56478;50.982;7.032;2024-02-04T04:39:54;11.04;91.96
68177;DHT22;56478;50.982;7.032;2024-02-04T04:42:20;11.04;91.88
68177;DHT22;56478;50.982;7.032;2024-02-04T04:44:45;11.05;91.97
68177;DHT22;56478;50.982;7.032;2024-02-04T04:47:12;11.00;92.01
68177;DHT22;56478;50.982;7.032;2024-02-04T04:49:37;11.11;92.01
68177;DHT22;56478;50.982;7.032;2024-02-04T04:52:03;11.08;91.86
68177;DHT22;56478;50.982;7.032;2024-02-04T04:54:29;11.04;91.72
68177;DHT22;56478;50.982;7.032;2024-02-04T04:56:55;11.09;91.64
68177;DHT22;56478;50.982;7.032;2024-02-04T04:59:20;11.11;91.57
68177;DHT22;56478;50.982;7.032;2024-02-04T05:01:50;11.02;91.53
68177;DHT22;56478;50.982;7.032;2024-02-04T05:04:16;11.04;91.61
68177;DHT22;56478;50.982;7.032;2024-02-04T05:06:42;11.02;91.45
68177;DHT22;56478;50.982;7.032;2024-02-04T05:09:08;11.02;91.56
68177;DHT22;56478;50.982;7.032;2024-02-04T05:11:34;11.07;91.40
68177;DHT22;56478;50.982;7.032;2024-02-04T05:14:00;11.00;91.59
68177;DHT22;56478;50.982;7.032;2024-02-04T05:16:25;11.01;91.65
68177;DHT22;56478;50.982;7.032;2024-02-04T05:18:51;10.94;91.61
68177;DHT22;56478;50.982;7.032;2024-02-04T05:21:17;10.95;91.65
68177;DHT22;56478;50.982;7.032;2024-02-04T05:23:42;10.91;91.57
68177;DHT22;56478;50.982;7.032;2024-02-04T05:26:08;10.94;91.73
68177;DHT22;56478;50.982;7.032;2024-02-04T05:28:33;10.94;91.71
68177;DHT22;56478;50.982;7.032;2024-02-04T05:31:01;10.95;91.61
68177;DHT22;56478;50.982;7.032;2024-02-04T05:33:26;10.94;91.73
68177;DHT22;56478;50.982;7.032;2024-02-04T05:35:53;10.97;91.62
68177;DHT22;56478;50.982;7.032;2024-02-04T05:38:21;10.92;91.43
68177;DHT22;56478;50.982;7.032;2024-02-04T05:40:47;10.90;91.64
68177;DHT22;56478;50.982;7.032;2024-02-04T05:43:13;10.95;91.60
68177;DHT22;56478;50.982;7.032;2024-02-04T05:45:39;10.95;91.59
68177;DHT22;56478;50.982;7.032;2024-02-04T05:48:08;11.05;91.14
68177;DHT22;56478;50.982;7.032;2024-02-04T05:50:34;11.02;91.15
68177;DHT22;56478;50.982;7.032;2024-02-04T05:52:59;11.02;91.26
68177;DHT22;56478;50.982;7.032;2024-02-04T05:55:25;10.98;91.43
68177;DHT22;56478;50.982;7.032;2024-02-04T05:57:51;11.00;91.34
68177;DHT22;56478;50.982;7.032;2024-02-04T06:00:16;10.98;91.60
68177;DHT22;56478;50.982;7.032;2024-02-04T06:02:42;11.02;91.54
68177;DHT22;56478;50.982;7.032;2024-02-04T06:05:11;11.05;91.47
68177;DHT22;56478;50.982;7.032;2024-02-04T06:07:37;11.04;91.54
68177;DHT22;56478;50.982;7.032;2024-02-04T06:10:03;11.02;91.58
68177;DHT22;56478;50.982;7.032;2024-02-04T06:12:29;11.05;91.79
68177;DHT22;56478;50.982;7.032;2024-02-04T06:14:55;10.98;91.56
68177;DHT22;56478;50.982;7.032;2024-02-04T06:17:21;11.00;91.71
68177;DHT22;56478;50.982;7.032;2024-02-04T06:19:46;11.01;91.48
68177;DHT22;56478;50.982;7.032;2024-02-04T06:22:12;11.05;91.63
68177;DHT22;56478;50.982;7.032;2024-02-04T06:24:38;11.04;91.70
68177;DHT22;56478;50.982;7.032;2024-02-04T06:27:07;11.01;91.52
68177;DHT22;56478;50.982;7.032;2024-02-04T06:29:33;11.01;91.58
68177;DHT22;56478;50.982;7.032;2024-02-04T06:31:59;11.01;91.69
68177;DHT22;56478;50.982;7.032;2024-02-04T06:34:25;11.02;91.72
68177;DHT22;56478;50.982;7.032;2024-02-04T06:36:50;11.05;91.50
68177;DHT22;56478;50.982;7.032;2024-02-04T06:39:16;11.14;91.13
68177;DHT22;56478;50.982;7.032;2024-02-04T06:41:42;11.08;91.13
68177;DHT22;56478;50.982;7.032;2024-02-04T06:44:07;11.11;91.06
68177;DHT22;56478;50.982;7.032;2024-02-04T06:46:33;11.05;91.26
68177;DHT22;56478;50.982;7.032;2024-02-04T06:48:59;11.05;90.97
68177;DHT22;56478;50.982;7.032;2024-02-04T06:51:24;11.07;91.09
68177;DHT22;56478;50.982;7.032;2024-02-04T06:53:50;11.08;91.25
68177;DHT22;56478;50.982;7.032;2024-02-04T06:56:16;11.05;91.09
68177;DHT22;56478;50.982;7.032;2024-02-04T06:58:44;11.04;91.16
68177;DHT22;56478;50.982;7.032;2024-02-04T07:01:19;11.05;91.35
68177;DHT22;56478;50.982;7.032;2024-02-04T07:04:00;11.02;91.58
68177;DHT22;56478;50.982;7.032;2024-02-04T07:06:29;11.00;91.75
68177;DHT22;56478;50.982;7.032;2024-02-04T07:08:58;11.00;91.79
68177;DHT22;56478;50.982;7.032;2024-02-04T07:11:27;11.00;91.64
68177;DHT22;56478;50.982;7.032;2024-02-04T07:13:56;11.00;92.02
68177;DHT22;56478;50.982;7.032;2024-02-04T07:16:34;10.95;92.07
68177;DHT22;56478;50.982;7.032;2024-02-04T07:19:09;10.94;92.24
68177;DHT22;56478;50.982;7.032;2024-02-04T07:21:35;10.95;92.22
68177;DHT22;56478;50.982;7.032;2024-02-04T07:24:00;11.01;92.20
68177;DHT22;56478;50.982;7.032;2024-02-04T07:26:26;11.01;91.95
68177;DHT22;56478;50.982;7.032;2024-02-04T07:28:52;11.00;92.26
68177;DHT22;56478;50.982;7.032;2024-02-04T07:31:18;10.94;92.33
68177;DHT22;56478;50.982;7.032;2024-02-04T07:33:44;10.97;92.34
68177;DHT22;56478;50.982;7.032;2024-02-04T07:36:10;10.98;92.50
68177;DHT22;56478;50.982;7.032;2024-02-04T07:38:36;10.94;92.40
68177;DHT22;56478;50.982;7.032;2024-02-04T07:41:02;10.97;92.18
68177;DHT22;56478;50.982;7.032;2024-02-04T07:43:28;10.97;92.16
68177;DHT22;56478;50.982;7.032;2024-02-04T07:45:53;11.04;91.94
68177;DHT22;56478;50.982;7.032;2024-02-04T07:48:19;11.04;91.84
68177;DHT22;56478;50.982;7.032;2024-02-04T07:50:46;11.07;91.73
68177;DHT22;56478;50.982;7.032;2024-02-04T07:53:11;11.11;91.63
68177;DHT22;56478;50.982;7.032;2024-02-04T07:55:37;11.11;91.41
68177;DHT22;56478;50.982;7.032;2024-02-04T07:58:03;11.12;91.56
68177;DHT22;56478;50.982;7.032;2024-02-04T08:00:29;11.11;91.29
68177;DHT22;56478;50.982;7.032;2024-02-04T08:02:55;11.18;91.33
68177;DHT22;56478;50.982;7.032;2024-02-04T08:05:20;11.20;91.36
68177;DHT22;56478;50.982;7.032;2024-02-04T08:07:46;11.26;91.25
68177;DHT22;56478;50.982;7.032;2024-02-04T08:10:12;11.22;91.30
68177;DHT22;56478;50.982;7.032;2024-02-04T08:12:37;11.19;91.16
68177;DHT22;56478;50.982;7.032;2024-02-04T08:15:03;11.22;91.02
68177;DHT22;56478;50.982;7.032;2024-02-04T08:17:30;11.18;90.89
68177;DHT22;56478;50.982;7.032;2024-02-04T08:19:59;11.26;90.56
68177;DHT22;56478;50.982;7.032;2024-02-04T08:22:24;11.30;90.42
68177;DHT22;56478;50.982;7.032;2024-02-04T08:24:50;11.28;91.02
68177;DHT22;56478;50.982;7.032;2024-02-04T08:27:16;11.29;91.03
68177;DHT22;56478;50.982;7.032;2024-02-04T08:29:43;11.29;91.12
68177;DHT22;56478;50.982;7.032;2024-02-04T08:32:10;11.30;90.95
68177;DHT22;56478;50.982;7.032;2024-02-04T08:34:35;11.32;90.93
68177;DHT22;56478;50.982;7.032;2024-02-04T08:37:01;11.35;90.83
68177;DHT22;56478;50.982;7.032;2024-02-04T08:39:27;11.33;91.04
68177;DHT22;56478;50.982;7.032;2024-02-04T08:41:55;11.35;91.15
68177;DHT22;56478;50.982;7.032;2024-02-04T08:44:21;11.42;90.86
68177;DHT22;56478;50.982;7.032;2024-02-04T08:46:46;11.44;90.96
68177;DHT22;56478;50.982;7.032;2024-02-04T08:49:12;11.40;90.73
68177;DHT22;56478;50.982;7.032;2024-02-04T08:51:37;11.42;90.47
68177;DHT22;56478;50.982;7.032;2024-02-04T08:54:03;11.42;90.71
68177;DHT22;56478;50.982;7.032;2024-02-04T08:56:29;11.44;90.98
68177;DHT22;56478;50.982;7.032;2024-02-04T08:58:54;11.53;90.85
68177;DHT22;56478;50.982;7.032;2024-02-04T09:01:20;11.59;90.60
68177;DHT22;56478;50.982;7.032;2024-02-04T09:03:46;11.53;90.89
68177;DHT22;56478;50.982;7.032;2024-02-04T09:06:11;11.54;90.86
68177;DHT22;56478;50.982;7.032;2024-02-04T09:08:37;11.56;90.49
68177;DHT22;56478;50.982;7.032;2024-02-04T09:11:03;11.60;90.39
68177;DHT22;56478;50.982;7.032;2024-02-04T09:13:28;11.59;90.64
68177;DHT22;56478;50.982;7.032;2024-02-04T09:15:54;11.62;90.54
68177;DHT22;56478;50.982;7.032;2024-02-04T09:18:20;11.71;90.25
68177;DHT22;56478;50.982;7.032;2024-02-04T09:20:46;11.63;90.45
68177;DHT22;56478;50.982;7.032;2024-02-04T09:23:12;11.60;90.33
68177;DHT22;56478;50.982;7.032;2024-02-04T09:25:37;11.63;90.54
68177;DHT22;56478;50.982;7.032;2024-02-04T09:28:03;11.60;90.55
68177;DHT22;56478;50.982;7.032;2024-02-04T09:30:29;11.70;90.61
68177;DHT22;56478;50.982;7.032;2024-02-04T09:32:55;11.80;90.12
68177;DHT22;56478;50.982;7.032;2024-02-04T09:35:20;11.87;90.15
68177;DHT22;56478;50.982;7.032;2024-02-04T09:37:46;11.84;89.95
68177;DHT22;56478;50.982;7.032;2024-02-04T09:40:12;11.73;89.65
68177;DHT22;56478;50.982;7.032;2024-02-04T09:42:38;11.73;89.88
68177;DHT22;56478;50.982;7.032;2024-02-04T09:45:04;11.78;89.60
68177;DHT22;56478;50.982;7.032;2024-02-04T09:47:31;11.78;90.02
68177;DHT22;56478;50.982;7.032;2024-02-04T09:49:57;11.89;89.63
68177;DHT22;56478;50.982;7.032;2024-02-04T09:52:29;11.88;89.34
68177;DHT22;56478;50.982;7.032;2024-02-04T09:54:59;11.92;89.54
68177;DHT22;56478;50.982;7.032;2024-02-04T09:57:26;12.01;89.60
68177;DHT22;56478;50.982;7.032;2024-02-04T09:59:51;12.18;88.98
68177;DHT22;56478;50.982;7.032;2024-02-04T10:02:17;12.26;89.05
68177;DHT22;56478;50.982;7.032;2024-02-04T10:04:43;12.15;88.89
68177;DHT22;56478;50.982;7.032;2024-02-04T10:07:09;12.19;88.80
68177;DHT22;56478;50.982;7.032;2024-02-04T10:09:35;12.22;88.54
68177;DHT22;56478;50.982;7.032;2024-02-04T10:12:01;12.36;87.62
68177;DHT22;56478;50.982;7.032;2024-02-04T10:14:26;12.33;87.90
68177;DHT22;56478;50.982;7.032;2024-02-04T10:16:52;12.29;88.04
68177;DHT22;56478;50.982;7.032;2024-02-04T10:19:18;12.34;88.09
68177;DHT22;56478;50.982;7.032;2024-02-04T10:21:44;12.34;87.52
68177;DHT22;56478;50.982;7.032;2024-02-04T10:24:09;12.46;87.71
68177;DHT22;56478;50.982;7.032;2024-02-04T10:26:35;12.34;87.73
68177;DHT22;56478;50.982;7.032;2024-02-04T10:29:03;12.37;87.58
68177;DHT22;56478;50.982;7.032;2024-02-04T10:31:29;12.14;88.12
68177;DHT22;56478;50.982;7.032;2024-02-04T10:33:55;12.12;88.52
68177;DHT22;56478;50.982;7.032;2024-02-04T10:36:21;11.99;88.48
68177;DHT22;56478;50.982;7.032;2024-02-04T10:38:47;12.16;88.60
68177;DHT22;56478;50.982;7.032;2024-02-04T10:41:15;12.16;88.33
68177;DHT22;56478;50.982;7.032;2024-02-04T10:43:43;12.26;87.88
68177;DHT22;56478;50.982;7.032;2024-02-04T10:46:13;12.39;87.34
68177;DHT22;56478;50.982;7.032;2024-02-04T10:48:42;12.30;87.88
68177;DHT22;56478;50.982;7.032;2024-02-04T10:51:14;12.42;86.74
68177;DHT22;56478;50.982;7.032;2024-02-04T10:53:44;12.44;86.36
68177;DHT22;56478;50.982;7.032;2024-02-04T10:56:30;12.57;86.54
68177;DHT22;56478;50.982;7.032;2024-02-04T10:58:57;12.56;86.30
68177;DHT22;56478;50.982;7.032;2024-02-04T11:01:25;12.42;86.62
68177;DHT22;56478;50.982;7.032;2024-02-04T11:03:53;12.43;86.25
68177;DHT22;56478;50.982;7.032;2024-02-04T11:06:20;12.54;86.78
68177;DHT22;56478;50.982;7.032;2024-02-04T11:08:46;12.47;86.70
68177;DHT22;56478;50.982;7.032;2024-02-04T11:11:12;12.34;86.80
68177;DHT22;56478;50.982;7.032;2024-02-04T11:13:40;12.33;86.65
68177;DHT22;56478;50.982;7.032;2024-02-04T11:16:20;12.26;86.77
68177;DHT22;56478;50.982;7.032;2024-02-04T11:18:56;12.26;87.51
68177;DHT22;56478;50.982;7.032;2024-02-04T11:27:02;12.25;87.36
68177;DHT22;56478;50.982;7.032;2024-02-04T11:29:28;12.18;87.78
68177;DHT22;56478;50.982;7.032;2024-02-04T11:31:54;12.16;87.44
68177;DHT22;56478;50.982;7.032;2024-02-04T11:34:19;12.12;87.16
68177;DHT22;56478;50.982;7.032;2024-02-04T11:36:45;12.11;87.45
68177;DHT22;56478;50.982;7.032;2024-02-04T11:39:12;12.21;87.51
68177;DHT22;56478;50.982;7.032;2024-02-04T11:41:45;12.15;87.41
68177;DHT22;56478;50.982;7.032;2024-02-04T11:44:24;12.11;87.33
68177;DHT22;56478;50.982;7.032;2024-02-04T11:46:50;12.09;87.24
68177;DHT22;56478;50.982;7.032;2024-02-04T11:49:23;12.16;87.30
68177;DHT22;56478;50.982;7.032;2024-02-04T11:51:53;12.14;88.16
68177;DHT22;56478;50.982;7.032;2024-02-04T11:54:20;12.06;88.10
68177;DHT22;56478;50.982;7.032;2024-02-04T11:56:48;12.12;88.20
68177;DHT22;56478;50.982;7.032;2024-02-04T11:59:19;12.23;87.68
68177;DHT22;56478;50.982;7.032;2024-02-04T12:01:47;12.30;87.46
68177;DHT22;56478;50.982;7.032;2024-02-04T12:04:15;12.23;87.55
68177;DHT22;56478;50.982;7.032;2024-02-04T12:06:41;12.30;87.68
68177;DHT22;56478;50.982;7.032;2024-02-04T12:09:10;12.32;87.13
68177;DHT22;56478;50.982;7.032;2024-02-04T12:11:36;12.30;87.16
68177;DHT22;56478;50.982;7.032;2024-02-04T12:14:04;12.32;86.83
68177;DHT22;56478;50.982;7.032;2024-02-04T12:16:31;12.22;87.16
68177;DHT22;56478;50.982;7.032;2024-02-04T12:18:58;12.16;87.71
68177;DHT22;56478;50.982;7.032;2024-02-04T12:21:25;12.11;87.77
68177;DHT22;56478;50.982;7.032;2024-02-04T12:23:51;12.06;88.04
68177;DHT22;56478;50.982;7.032;2024-02-04T12:26:17;12.05;88.26
68177;DHT22;56478;50.982;7.032;2024-02-04T12:28:43;12.04;88.58
68177;DHT22;56478;50.982;7.032;2024-02-04T12:31:25;11.97;88.64
68177;DHT22;56478;50.982;7.032;2024-02-04T12:33:55;12.02;88.73
68177;DHT22;56478;50.982;7.032;2024-02-04T12:36:29;12.08;88.34
68177;DHT22;56478;50.982;7.032;2024-02-04T12:38:56;11.94;89.23
68177;DHT22;56478;50.982;7.032;2024-02-04T12:41:22;11.92;88.93
68177;DHT22;56478;50.982;7.032;2024-02-04T12:43:59;11.95;89.38
68177;DHT22;56478;50.982;7.032;2024-02-04T12:46:26;11.88;88.98
68177;DHT22;56478;50.982;7.032;2024-02-04T12:48:56;11.92;89.29
68177;DHT22;56478;50.982;7.032;2024-02-04T12:51:29;11.78;89.62
68177;DHT22;56478;50.982;7.032;2024-02-04T12:54:11;11.81;89.82
68177;DHT22;56478;50.982;7.032;2024-02-04T12:56:49;11.71;90.14
68177;DHT22;56478;50.982;7.032;2024-02-04T12:59:31;11.77;90.68
68177;DHT22;56478;50.982;7.032;2024-02-04T13:01:59;11.74;90.78
68177;DHT22;56478;50.982;7.032;2024-02-04T13:04:26;11.75;90.48
68177;DHT22;56478;50.982;7.032;2024-02-04T13:06:52;11.70;90.99
68177;DHT22;56478;50.982;7.032;2024-02-04T13:09:18;11.66;91.30
68177;DHT22;56478;50.982;7.032;2024-02-04T13:11:45;11.63;91.29
68177;DHT22;56478;50.982;7.032;2024-02-04T13:14:11;11.53;91.32
68177;DHT22;56478;50.982;7.032;2024-02-04T13:16:37;11.44;91.95
68177;DHT22;56478;50.982;7.032;2024-02-04T13:19:03;11.49;91.82
68177;DHT22;56478;50.982;7.032;2024-02-04T13:21:29;11.56;91.74
68177;DHT22;56478;50.982;7.032;2024-02-04T13:23:56;11.50;91.79
68177;DHT22;56478;50.982;7.032;2024-02-04T13:26:21;11.50;92.10
68177;DHT22;56478;50.982;7.032;2024-02-04T13:28:47;11.46;91.91
68177;DHT22;56478;50.982;7.032;2024-02-04T13:31:14;11.52;91.97
68177;DHT22;56478;50.982;7.032;2024-02-04T13:33:39;11.54;91.73
68177;DHT22;56478;50.982;7.032;2024-02-04T13:36:08;11.50;91.51
68177;DHT22;56478;50.982;7.032;2024-02-04T13:38:34;11.46;91.56
68177;DHT22;56478;50.982;7.032;2024-02-04T13:41:03;11.52;91.70
68177;DHT22;56478;50.982;7.032;2024-02-04T13:43:31;11.53;91.49
68177;DHT22;56478;50.982;7.032;2024-02-04T13:45:59;11.46;91.51
68177;DHT22;56478;50.982;7.032;2024-02-04T13:48:24;11.52;91.63
68177;DHT22;56478;50.982;7.032;2024-02-04T13:50:51;11.53;91.34
68177;DHT22;56478;50.982;7.032;2024-02-04T13:53:17;11.46;91.35
68177;DHT22;56478;50.982;7.032;2024-02-04T13:55:42;11.57;91.00
68177;DHT22;56478;50.982;7.032;2024-02-04T13:58:09;11.62;90.93
68177;DHT22;56478;50.982;7.032;2024-02-04T14:00:35;11.69;90.66
68177;DHT22;56478;50.982;7.032;2024-02-04T14:03:00;11.66;90.89
68177;DHT22;56478;50.982;7.032;2024-02-04T14:05:26;11.70;90.90
68177;DHT22;56478;50.982;7.032;2024-02-04T14:07:52;11.73;90.43
68177;DHT22;56478;50.982;7.032;2024-02-04T14:10:17;11.73;90.25
68177;DHT22;56478;50.982;7.032;2024-02-04T14:12:43;11.71;90.42
68177;DHT22;56478;50.982;7.032;2024-02-04T14:15:11;11.67;90.30
68177;DHT22;56478;50.982;7.032;2024-02-04T14:17:37;11.71;90.18
68177;DHT22;56478;50.982;7.032;2024-02-04T14:20:04;11.64;90.07
68177;DHT22;56478;50.982;7.032;2024-02-04T14:22:30;11.69;90.18
68177;DHT22;56478;50.982;7.032;2024-02-04T14:24:57;11.69;89.86
68177;DHT22;56478;50.982;7.032;2024-02-04T14:27:23;11.62;89.77
68177;DHT22;56478;50.982;7.032;2024-02-04T14:29:51;11.62;89.95
68177;DHT22;56478;50.982;7.032;2024-02-04T14:32:16;11.70;90.09
68177;DHT22;56478;50.982;7.032;2024-02-04T14:34:42;11.70;89.84
68177;DHT22;56478;50.982;7.032;2024-02-04T14:37:08;11.64;89.75
68177;DHT22;56478;50.982;7.032;2024-02-04T14:39:33;11.67;89.73
68177;DHT22;56478;50.982;7.032;2024-02-04T14:41:59;11.67;89.62
68177;DHT22;56478;50.982;7.032;2024-02-04T14:44:25;11.73;89.59
68177;DHT22;56478;50.982;7.032;2024-02-04T14:46:51;11.73;89.18
68177;DHT22;56478;50.982;7.032;2024-02-04T14:49:16;11.73;89.24
68177;DHT22;56478;50.982;7.032;2024-02-04T14:51:42;11.74;89.20
68177;DHT22;56478;50.982;7.032;2024-02-04T14:54:08;11.80;89.15
68177;DHT22;56478;50.982;7.032;2024-02-04T14:56:41;11.77;88.92
68177;DHT22;56478;50.982;7.032;2024-02-04T14:59:08;11.71;89.05
68177;DHT22;56478;50.982;7.032;2024-02-04T15:01:35;11.74;89.14
68177;DHT22;56478;50.982;7.032;2024-02-04T15:04:01;11.78;88.91
68177;DHT22;56478;50.982;7.032;2024-02-04T15:06:26;11.74;88.80
68177;DHT22;56478;50.982;7.032;2024-02-04T15:08:55;11.80;88.80
68177;DHT22;56478;50.982;7.032;2024-02-04T15:11:21;11.71;88.89
68177;DHT22;56478;50.982;7.032;2024-02-04T15:13:47;11.77;88.82
68177;DHT22;56478;50.982;7.032;2024-02-04T15:16:13;11.77;88.42
68177;DHT22;56478;50.982;7.032;2024-02-04T15:18:39;11.81;88.74
68177;DHT22;56478;50.982;7.032;2024-02-04T15:21:06;11.80;88.50
68177;DHT22;56478;50.982;7.032;2024-02-04T15:23:32;11.80;88.77
68177;DHT22;56478;50.982;7.032;2024-02-04T15:25:58;11.75;88.92
68177;DHT22;56478;50.982;7.032;2024-02-04T15:28:24;11.70;88.78
68177;DHT22;56478;50.982;7.032;2024-02-04T15:30:50;11.67;88.82
68177;DHT22;56478;50.982;7.032;2024-02-04T15:33:16;11.69;88.97
68177;DHT22;56478;50.982;7.032;2024-02-04T15:35:43;11.73;89.05